Buxhansa — A8TQ5 — position and weather

sailwx.info

Track history (hours):
 
Tides and Currents Weather Stations Pressure Air Temp Water Temp Dewpoint Dewpoint Depression Visibility Wind Speed Wind Dir Waves Ship Positions

Buxhansa

Last reported at 2016-Apr-05 00:29 UTC. Time now 2016-May-06 01:45 UTC.
Position N 01°13' E 103°32'.
Warning: this ship's position is 31 days out of date.

Length 208 m; draft 8.9 m.

Type: Ship. MMSI: 636091849.

Date/timePositionNaut miles runAvg speedWind from/ knotsBaromVisibWave heightAir tempDewpointWater temp
2016-Apr-05 00:29N 01°13' E 103°32'9 9.8
2016-Apr-04 23:33N 01°13' E 103°41'6 5.7
2016-Apr-04 22:33N 01°17' E 103°46'0 0.0
2016-Apr-04 21:23N 01°17' E 103°46'0 0.0
2016-Apr-04 20:28N 01°17' E 103°46'0 0.0
2016-Apr-04 19:25N 01°17' E 103°46'0 0.0
2016-Apr-04 18:15N 01°17' E 103°46'0 0.0
2016-Apr-04 16:15N 01°17' E 103°46'0 0.0
2016-Apr-04 15:17N 01°17' E 103°46'0 0.0
2016-Apr-04 14:32N 01°17' E 103°46'1 0.6
2016-Apr-04 13:33N 01°17' E 103°45'8 8.4
2016-Apr-04 12:32N 01°13' E 103°52'4 4.3
2016-Apr-04 11:30N 01°15' E 103°57'  
2016-Mar-27 10:05N 01°14' E 103°58'  
Track history (hours):
 
Tides and Currents Weather Stations Pressure Air Temp Water Temp Dewpoint Dewpoint Depression Visibility Wind Speed Wind Dir Waves Ship Positions

Buxhansa

Last reported at 2016-Apr-05 00:29 UTC. Time now 2016-May-06 01:45 UTC.
Position N 01°13' E 103°32'.
Warning: this ship's position is 31 days out of date.

Length 208 m; draft 8.9 m.

Type: Ship. MMSI: 636091849.

Date/timePositionNaut miles runAvg speedWind from/ knotsBaromVisibWave heightAir tempDewpointWater temp
2016-Apr-05 00:29N 01°13' E 103°32'9 9.8
2016-Apr-04 23:33N 01°13' E 103°41'6 5.7
2016-Apr-04 22:33N 01°17' E 103°46'0 0.0
2016-Apr-04 21:23N 01°17' E 103°46'0 0.0
2016-Apr-04 20:28N 01°17' E 103°46'0 0.0
2016-Apr-04 19:25N 01°17' E 103°46'0 0.0
2016-Apr-04 18:15N 01°17' E 103°46'0 0.0
2016-Apr-04 16:15N 01°17' E 103°46'0 0.0
2016-Apr-04 15:17N 01°17' E 103°46'0 0.0
2016-Apr-04 14:32N 01°17' E 103°46'1 0.6
2016-Apr-04 13:33N 01°17' E 103°45'8 8.4
2016-Apr-04 12:32N 01°13' E 103°52'4 4.3
2016-Apr-04 11:30N 01°15' E 103°57'  
2016-Mar-27 10:05N 01°14' E 103°58'  

Dump ship's entire track history